sensor_id;sensor_type;location;lat;lon;timestamp;pressure;altitude;pressure_sealevel;temperature
65765;BMP180;52915;53.718;19.946;2022-07-29T00:01:28;101092.20;;;14.40
65765;BMP180;52915;53.718;19.946;2022-07-29T00:06:32;101085.20;;;14.34
65765;BMP180;52915;53.718;19.946;2022-07-29T00:11:37;101082.60;;;14.20
65765;BMP180;52915;53.718;19.946;2022-07-29T00:16:42;101082.00;;;14.20
65765;BMP180;52915;53.718;19.946;2022-07-29T00:21:46;101085.40;;;14.30
65765;BMP180;52915;53.718;19.946;2022-07-29T00:26:51;101084.00;;;14.16
65765;BMP180;52915;53.718;19.946;2022-07-29T00:31:56;101076.60;;;14.00
65765;BMP180;52915;53.718;19.946;2022-07-29T00:37:01;101077.00;;;13.90
65765;BMP180;52915;53.718;19.946;2022-07-29T00:42:06;101078.60;;;14.00
65765;BMP180;52915;53.718;19.946;2022-07-29T00:47:12;101081.20;;;14.00
65765;BMP180;52915;53.718;19.946;2022-07-29T00:52:17;101077.40;;;13.90
65765;BMP180;52915;53.718;19.946;2022-07-29T00:57:24;101073.60;;;13.70
65765;BMP180;52915;53.718;19.946;2022-07-29T01:02:29;101070.40;;;13.70
65765;BMP180;52915;53.718;19.946;2022-07-29T01:07:36;101074.80;;;13.70
65765;BMP180;52915;53.718;19.946;2022-07-29T01:12:43;101074.60;;;13.70
65765;BMP180;52915;53.718;19.946;2022-07-29T01:18:16;101081.00;;;13.70
65765;BMP180;52915;53.718;19.946;2022-07-29T01:23:50;101079.20;;;13.60
65765;BMP180;52915;53.718;19.946;2022-07-29T01:29:50;101085.20;;;13.40
65765;BMP180;52915;53.718;19.946;2022-07-29T01:35:18;101088.40;;;13.40
65765;BMP180;52915;53.718;19.946;2022-07-29T01:40:36;101083.20;;;13.40
65765;BMP180;52915;53.718;19.946;2022-07-29T01:45:50;101081.40;;;13.42
65765;BMP180;52915;53.718;19.946;2022-07-29T01:51:02;101081.20;;;13.50
65765;BMP180;52915;53.718;19.946;2022-07-29T01:56:10;101086.20;;;13.30
65765;BMP180;52915;53.718;19.946;2022-07-29T02:01:17;101080.40;;;13.20
65765;BMP180;52915;53.718;19.946;2022-07-29T02:06:23;101082.20;;;13.30
65765;BMP180;52915;53.718;19.946;2022-07-29T02:11:31;101082.00;;;13.40
65765;BMP180;52915;53.718;19.946;2022-07-29T02:16:40;101085.00;;;13.30
65765;BMP180;52915;53.718;19.946;2022-07-29T02:21:46;101085.00;;;13.10
65765;BMP180;52915;53.718;19.946;2022-07-29T02:26:55;101083.80;;;13.00
65765;BMP180;52915;53.718;19.946;2022-07-29T02:32:01;101082.40;;;12.90
65765;BMP180;52915;53.718;19.946;2022-07-29T02:37:10;101085.80;;;12.70
65765;BMP180;52915;53.718;19.946;2022-07-29T02:42:21;101089.40;;;12.70
65765;BMP180;52915;53.718;19.946;2022-07-29T02:47:47;101086.20;;;12.70
65765;BMP180;52915;53.718;19.946;2022-07-29T02:53:09;101084.60;;;12.70
65765;BMP180;52915;53.718;19.946;2022-07-29T02:58:29;101085.20;;;12.60
65765;BMP180;52915;53.718;19.946;2022-07-29T03:03:37;101084.60;;;12.50
65765;BMP180;52915;53.718;19.946;2022-07-29T03:08:44;101088.00;;;12.40
65765;BMP180;52915;53.718;19.946;2022-07-29T03:13:52;101090.20;;;12.30
65765;BMP180;52915;53.718;19.946;2022-07-29T03:18:58;101092.80;;;12.30
65765;BMP180;52915;53.718;19.946;2022-07-29T03:24:04;101090.00;;;12.30
65765;BMP180;52915;53.718;19.946;2022-07-29T03:29:14;101090.80;;;12.40
65765;BMP180;52915;53.718;19.946;2022-07-29T03:34:22;101086.20;;;12.36
65765;BMP180;52915;53.718;19.946;2022-07-29T03:39:33;101084.00;;;12.20
65765;BMP180;52915;53.718;19.946;2022-07-29T03:44:41;101083.40;;;12.10
65765;BMP180;52915;53.718;19.946;2022-07-29T03:49:52;101081.60;;;12.10
65765;BMP180;52915;53.718;19.946;2022-07-29T03:54:58;101082.40;;;12.20
65765;BMP180;52915;53.718;19.946;2022-07-29T04:00:04;101084.40;;;12.30
65765;BMP180;52915;53.718;19.946;2022-07-29T04:05:14;101080.40;;;12.40
65765;BMP180;52915;53.718;19.946;2022-07-29T04:10:19;101073.20;;;12.52
65765;BMP180;52915;53.718;19.946;2022-07-29T04:15:35;101079.20;;;12.60
65765;BMP180;52915;53.718;19.946;2022-07-29T04:20:40;101079.60;;;12.70
65765;BMP180;52915;53.718;19.946;2022-07-29T04:25:47;101085.60;;;12.98
65765;BMP180;52915;53.718;19.946;2022-07-29T04:30:52;101083.40;;;13.20
65765;BMP180;52915;53.718;19.946;2022-07-29T04:35:58;101091.80;;;13.42
65765;BMP180;52915;53.718;19.946;2022-07-29T04:41:03;101094.40;;;13.72
65765;BMP180;52915;53.718;19.946;2022-07-29T04:46:08;101095.20;;;13.90
65765;BMP180;52915;53.718;19.946;2022-07-29T04:51:14;101099.40;;;14.00
65765;BMP180;52915;53.718;19.946;2022-07-29T04:56:19;101095.60;;;14.26
65765;BMP180;52915;53.718;19.946;2022-07-29T05:01:24;101093.00;;;14.60
65765;BMP180;52915;53.718;19.946;2022-07-29T05:06:28;101094.00;;;14.90
65765;BMP180;52915;53.718;19.946;2022-07-29T05:11:33;101096.00;;;15.10
65765;BMP180;52915;53.718;19.946;2022-07-29T05:16:38;101095.60;;;15.20
65765;BMP180;52915;53.718;19.946;2022-07-29T05:21:47;101092.80;;;15.40
65765;BMP180;52915;53.718;19.946;2022-07-29T05:26:57;101085.40;;;15.84
65765;BMP180;52915;53.718;19.946;2022-07-29T05:32:03;101088.80;;;16.34
65765;BMP180;52915;53.718;19.946;2022-07-29T05:37:10;101088.40;;;16.60
65765;BMP180;52915;53.718;19.946;2022-07-29T05:42:17;101089.00;;;16.92
65765;BMP180;52915;53.718;19.946;2022-07-29T05:47:24;101088.40;;;17.40
65765;BMP180;52915;53.718;19.946;2022-07-29T05:52:29;101090.40;;;17.76
65765;BMP180;52915;53.718;19.946;2022-07-29T05:57:34;101098.60;;;18.02
65765;BMP180;52915;53.718;19.946;2022-07-29T06:02:39;101089.00;;;18.30
65765;BMP180;52915;53.718;19.946;2022-07-29T06:07:44;101086.00;;;18.62
65765;BMP180;52915;53.718;19.946;2022-07-29T06:12:55;101077.00;;;19.00
65765;BMP180;52915;53.718;19.946;2022-07-29T06:18:01;101086.80;;;19.20
65765;BMP180;52915;53.718;19.946;2022-07-29T06:23:07;101090.00;;;19.46
65765;BMP180;52915;53.718;19.946;2022-07-29T06:28:14;101093.80;;;19.70
65765;BMP180;52915;53.718;19.946;2022-07-29T06:33:20;101093.60;;;19.80
65765;BMP180;52915;53.718;19.946;2022-07-29T06:38:25;101091.60;;;20.04
65765;BMP180;52915;53.718;19.946;2022-07-29T06:43:39;101092.60;;;20.38
65765;BMP180;52915;53.718;19.946;2022-07-29T06:48:56;101091.60;;;20.60
65765;BMP180;52915;53.718;19.946;2022-07-29T06:54:00;101092.80;;;20.90
65765;BMP180;52915;53.718;19.946;2022-07-29T06:59:09;101096.80;;;21.00
65765;BMP180;52915;53.718;19.946;2022-07-29T07:04:15;101090.60;;;21.00
65765;BMP180;52915;53.718;19.946;2022-07-29T07:09:22;101085.60;;;21.10
65765;BMP180;52915;53.718;19.946;2022-07-29T07:14:43;101082.00;;;21.20
65765;BMP180;52915;53.718;19.946;2022-07-29T07:19:48;101087.40;;;21.40
65765;BMP180;52915;53.718;19.946;2022-07-29T07:24:53;101079.00;;;21.64
65765;BMP180;52915;53.718;19.946;2022-07-29T07:30:04;101077.60;;;21.90
65765;BMP180;52915;53.718;19.946;2022-07-29T07:35:12;101082.60;;;22.10
65765;BMP180;52915;53.718;19.946;2022-07-29T07:40:18;101090.40;;;22.46
65765;BMP180;52915;53.718;19.946;2022-07-29T07:45:24;101084.60;;;22.70
65765;BMP180;52915;53.718;19.946;2022-07-29T07:50:30;101086.80;;;23.00
65765;BMP180;52915;53.718;19.946;2022-07-29T07:55:40;101080.60;;;23.30
65765;BMP180;52915;53.718;19.946;2022-07-29T08:01:06;101091.20;;;23.50
65765;BMP180;52915;53.718;19.946;2022-07-29T08:06:11;101092.00;;;23.40
65765;BMP180;52915;53.718;19.946;2022-07-29T08:11:20;101093.80;;;23.50
65765;BMP180;52915;53.718;19.946;2022-07-29T08:16:27;101095.60;;;23.80
65765;BMP180;52915;53.718;19.946;2022-07-29T08:21:33;101092.60;;;24.04
65765;BMP180;52915;53.718;19.946;2022-07-29T08:26:38;101088.60;;;24.10
65765;BMP180;52915;53.718;19.946;2022-07-29T08:31:43;101084.40;;;24.20
65765;BMP180;52915;53.718;19.946;2022-07-29T08:36:50;101090.00;;;24.46
65765;BMP180;52915;53.718;19.946;2022-07-29T08:41:55;101093.00;;;24.70
65765;BMP180;52915;53.718;19.946;2022-07-29T08:47:02;101095.40;;;24.56
65765;BMP180;52915;53.718;19.946;2022-07-29T08:52:11;101102.40;;;24.60
65765;BMP180;52915;53.718;19.946;2022-07-29T08:57:21;101095.60;;;24.90
65765;BMP180;52915;53.718;19.946;2022-07-29T09:02:39;101092.20;;;25.38
65765;BMP180;52915;53.718;19.946;2022-07-29T09:07:44;101116.20;;;25.60
65765;BMP180;52915;53.718;19.946;2022-07-29T09:12:54;101090.20;;;25.82
65765;BMP180;52915;53.718;19.946;2022-07-29T09:17:58;101090.60;;;26.18
65765;BMP180;52915;53.718;19.946;2022-07-29T09:23:08;101092.40;;;26.68
65765;BMP180;52915;53.718;19.946;2022-07-29T09:28:15;101085.40;;;26.90
65765;BMP180;52915;53.718;19.946;2022-07-29T09:33:32;101083.80;;;27.14
65765;BMP180;52915;53.718;19.946;2022-07-29T09:39:01;101077.00;;;27.28
65765;BMP180;52915;53.718;19.946;2022-07-29T09:44:07;101077.20;;;27.40
65765;BMP180;52915;53.718;19.946;2022-07-29T09:49:21;101082.80;;;27.80
65765;BMP180;52915;53.718;19.946;2022-07-29T09:54:27;101095.40;;;27.86
65765;BMP180;52915;53.718;19.946;2022-07-29T09:59:34;101085.60;;;27.44
65765;BMP180;52915;53.718;19.946;2022-07-29T10:04:53;101075.00;;;27.70
65765;BMP180;52915;53.718;19.946;2022-07-29T10:09:58;101072.20;;;28.00
65765;BMP180;52915;53.718;19.946;2022-07-29T10:15:05;101072.20;;;28.20
65765;BMP180;52915;53.718;19.946;2022-07-29T10:20:10;101070.80;;;28.52
65765;BMP180;52915;53.718;19.946;2022-07-29T10:25:20;101077.00;;;28.70
65765;BMP180;52915;53.718;19.946;2022-07-29T10:30:26;101074.20;;;28.70
65765;BMP180;52915;53.718;19.946;2022-07-29T10:41:28;101071.20;;;29.20
65765;BMP180;52915;53.718;19.946;2022-07-29T10:46:47;101063.40;;;29.52
65765;BMP180;52915;53.718;19.946;2022-07-29T10:52:09;101067.00;;;29.80
65765;BMP180;52915;53.718;19.946;2022-07-29T11:02:49;101059.80;;;29.80
65765;BMP180;52915;53.718;19.946;2022-07-29T11:24:29;101049.80;;;30.00
65765;BMP180;52915;53.718;19.946;2022-07-29T11:29:58;101056.60;;;30.16
65765;BMP180;52915;53.718;19.946;2022-07-29T11:35:22;101042.40;;;30.30
65765;BMP180;52915;53.718;19.946;2022-07-29T11:40:40;101038.20;;;30.50
65765;BMP180;52915;53.718;19.946;2022-07-29T11:45:47;101037.20;;;30.40
65765;BMP180;52915;53.718;19.946;2022-07-29T11:50:56;101032.00;;;30.20
65765;BMP180;52915;53.718;19.946;2022-07-29T11:56:01;101023.00;;;29.80
65765;BMP180;52915;53.718;19.946;2022-07-29T12:01:13;101030.20;;;29.76
65765;BMP180;52915;53.718;19.946;2022-07-29T12:06:20;101022.20;;;29.98
65765;BMP180;52915;53.718;19.946;2022-07-29T12:11:27;101016.20;;;30.30
65765;BMP180;52915;53.718;19.946;2022-07-29T12:16:36;101019.40;;;30.20
65765;BMP180;52915;53.718;19.946;2022-07-29T12:21:48;101016.60;;;29.70
65765;BMP180;52915;53.718;19.946;2022-07-29T12:27:00;101020.80;;;29.40
65765;BMP180;52915;53.718;19.946;2022-07-29T12:32:06;101024.40;;;29.00
65765;BMP180;52915;53.718;19.946;2022-07-29T12:37:22;101021.20;;;28.90
65765;BMP180;52915;53.718;19.946;2022-07-29T12:43:07;101026.20;;;28.80
65765;BMP180;52915;53.718;19.946;2022-07-29T12:48:15;101020.80;;;28.78
65765;BMP180;52915;53.718;19.946;2022-07-29T12:53:20;101020.20;;;28.90
65765;BMP180;52915;53.718;19.946;2022-07-29T12:58:39;101016.40;;;29.00
65765;BMP180;52915;53.718;19.946;2022-07-29T13:03:51;101012.60;;;29.00
65765;BMP180;52915;53.718;19.946;2022-07-29T13:09:07;101017.20;;;28.70
65765;BMP180;52915;53.718;19.946;2022-07-29T13:14:38;101016.40;;;28.50
65765;BMP180;52915;53.718;19.946;2022-07-29T13:19:52;101012.80;;;28.20
65765;BMP180;52915;53.718;19.946;2022-07-29T13:25:01;101007.00;;;28.00
65765;BMP180;52915;53.718;19.946;2022-07-29T13:30:09;101007.20;;;28.10
65765;BMP180;52915;53.718;19.946;2022-07-29T13:35:23;101005.20;;;28.20
65765;BMP180;52915;53.718;19.946;2022-07-29T13:40:31;101003.00;;;28.34
65765;BMP180;52915;53.718;19.946;2022-07-29T13:45:37;101001.00;;;28.70
65765;BMP180;52915;53.718;19.946;2022-07-29T13:50:44;100991.80;;;29.00
65765;BMP180;52915;53.718;19.946;2022-07-29T13:55:51;100988.20;;;29.30
65765;BMP180;52915;53.718;19.946;2022-07-29T14:00:57;100984.40;;;29.22
65765;BMP180;52915;53.718;19.946;2022-07-29T14:06:02;100987.80;;;28.90
65765;BMP180;52915;53.718;19.946;2022-07-29T14:11:11;100991.00;;;28.40
65765;BMP180;52915;53.718;19.946;2022-07-29T14:16:19;100990.00;;;28.00
65765;BMP180;52915;53.718;19.946;2022-07-29T14:21:35;100984.00;;;27.80
65765;BMP180;52915;53.718;19.946;2022-07-29T14:26:40;100989.20;;;27.70
65765;BMP180;52915;53.718;19.946;2022-07-29T14:31:50;100979.60;;;27.50
65765;BMP180;52915;53.718;19.946;2022-07-29T14:36:59;100976.40;;;27.70
65765;BMP180;52915;53.718;19.946;2022-07-29T14:42:06;100976.60;;;28.12
65765;BMP180;52915;53.718;19.946;2022-07-29T14:47:16;100973.80;;;28.40
65765;BMP180;52915;53.718;19.946;2022-07-29T14:52:23;100980.00;;;28.40
65765;BMP180;52915;53.718;19.946;2022-07-29T14:57:28;100967.80;;;28.40
65765;BMP180;52915;53.718;19.946;2022-07-29T15:02:45;100974.20;;;28.50
65765;BMP180;52915;53.718;19.946;2022-07-29T15:08:05;100963.40;;;28.46
65765;BMP180;52915;53.718;19.946;2022-07-29T15:13:12;100962.80;;;28.70
65765;BMP180;52915;53.718;19.946;2022-07-29T15:18:18;100963.20;;;29.88
65765;BMP180;52915;53.718;19.946;2022-07-29T15:23:28;100956.00;;;30.56
65765;BMP180;52915;53.718;19.946;2022-07-29T15:28:34;100960.20;;;32.00
65765;BMP180;52915;53.718;19.946;2022-07-29T15:33:39;100966.40;;;30.70
65765;BMP180;52915;53.718;19.946;2022-07-29T15:38:44;100961.20;;;30.62
65765;BMP180;52915;53.718;19.946;2022-07-29T15:43:49;100954.40;;;31.44
65765;BMP180;52915;53.718;19.946;2022-07-29T15:48:55;100951.20;;;30.90
65765;BMP180;52915;53.718;19.946;2022-07-29T15:54:04;100948.60;;;30.60
65765;BMP180;52915;53.718;19.946;2022-07-29T15:59:09;100935.60;;;31.58
65765;BMP180;52915;53.718;19.946;2022-07-29T16:04:25;100931.00;;;32.96
65765;BMP180;52915;53.718;19.946;2022-07-29T16:09:31;100928.20;;;33.34
65765;BMP180;52915;53.718;19.946;2022-07-29T16:14:36;100924.80;;;33.80
65765;BMP180;52915;53.718;19.946;2022-07-29T16:19:43;100914.00;;;34.00
65765;BMP180;52915;53.718;19.946;2022-07-29T16:24:51;100911.40;;;34.18
65765;BMP180;52915;53.718;19.946;2022-07-29T16:29:56;100915.80;;;34.30
65765;BMP180;52915;53.718;19.946;2022-07-29T16:35:05;100910.40;;;33.60
65765;BMP180;52915;53.718;19.946;2022-07-29T16:40:11;100922.60;;;32.16
65765;BMP180;52915;53.718;19.946;2022-07-29T16:45:16;100912.20;;;30.88
65765;BMP180;52915;53.718;19.946;2022-07-29T16:50:49;100907.20;;;31.16
65765;BMP180;52915;53.718;19.946;2022-07-29T16:55:56;100920.20;;;30.46
65765;BMP180;52915;53.718;19.946;2022-07-29T17:01:01;100922.40;;;29.44
65765;BMP180;52915;53.718;19.946;2022-07-29T17:06:06;100920.80;;;28.58
65765;BMP180;52915;53.718;19.946;2022-07-29T17:11:11;100913.40;;;28.00
65765;BMP180;52915;53.718;19.946;2022-07-29T17:16:18;100911.00;;;28.56
65765;BMP180;52915;53.718;19.946;2022-07-29T17:21:28;100917.40;;;28.20
65765;BMP180;52915;53.718;19.946;2022-07-29T17:26:33;100916.20;;;27.14
65765;BMP180;52915;53.718;19.946;2022-07-29T17:31:38;100917.60;;;26.30
65765;BMP180;52915;53.718;19.946;2022-07-29T17:36:43;100920.60;;;25.56
65765;BMP180;52915;53.718;19.946;2022-07-29T17:41:48;100924.00;;;25.00
65765;BMP180;52915;53.718;19.946;2022-07-29T17:46:54;100920.60;;;24.58
65765;BMP180;52915;53.718;19.946;2022-07-29T17:52:00;100916.20;;;24.02
65765;BMP180;52915;53.718;19.946;2022-07-29T17:57:05;100925.60;;;23.70
65765;BMP180;52915;53.718;19.946;2022-07-29T18:02:09;100924.80;;;23.38
65765;BMP180;52915;53.718;19.946;2022-07-29T18:07:17;100933.20;;;23.00
65765;BMP180;52915;53.718;19.946;2022-07-29T18:12:22;100935.60;;;22.70
65765;BMP180;52915;53.718;19.946;2022-07-29T18:17:26;100933.80;;;22.38
65765;BMP180;52915;53.718;19.946;2022-07-29T18:22:53;100940.40;;;22.04
65765;BMP180;52915;53.718;19.946;2022-07-29T18:27:59;100943.20;;;21.80
65765;BMP180;52915;53.718;19.946;2022-07-29T18:33:05;100946.60;;;21.62
65765;BMP180;52915;53.718;19.946;2022-07-29T18:38:28;100940.40;;;21.42
65765;BMP180;52915;53.718;19.946;2022-07-29T18:43:36;100934.80;;;21.20
65765;BMP180;52915;53.718;19.946;2022-07-29T18:48:52;100937.80;;;21.00
65765;BMP180;52915;53.718;19.946;2022-07-29T18:53:57;100936.60;;;20.80
65765;BMP180;52915;53.718;19.946;2022-07-29T18:59:04;100934.40;;;20.60
65765;BMP180;52915;53.718;19.946;2022-07-29T19:04:10;100934.40;;;20.30
65765;BMP180;52915;53.718;19.946;2022-07-29T19:09:19;100937.80;;;20.10
65765;BMP180;52915;53.718;19.946;2022-07-29T19:14:27;100938.00;;;19.90
65765;BMP180;52915;53.718;19.946;2022-07-29T19:19:32;100941.00;;;19.70
65765;BMP180;52915;53.718;19.946;2022-07-29T19:24:40;100945.60;;;19.50
65765;BMP180;52915;53.718;19.946;2022-07-29T19:29:46;100941.60;;;19.36
65765;BMP180;52915;53.718;19.946;2022-07-29T19:34:52;100948.80;;;19.20
65765;BMP180;52915;53.718;19.946;2022-07-29T19:40:17;100941.80;;;19.00
65765;BMP180;52915;53.718;19.946;2022-07-29T19:45:24;100943.00;;;18.80
65765;BMP180;52915;53.718;19.946;2022-07-29T19:50:32;100942.00;;;18.64
65765;BMP180;52915;53.718;19.946;2022-07-29T19:55:39;100942.00;;;18.50
65765;BMP180;52915;53.718;19.946;2022-07-29T20:00:49;100944.60;;;18.40
65765;BMP180;52915;53.718;19.946;2022-07-29T20:05:54;100937.20;;;18.20
65765;BMP180;52915;53.718;19.946;2022-07-29T20:11:00;100942.20;;;18.10
65765;BMP180;52915;53.718;19.946;2022-07-29T20:16:07;100939.60;;;18.00
65765;BMP180;52915;53.718;19.946;2022-07-29T20:21:12;100938.60;;;17.90
65765;BMP180;52915;53.718;19.946;2022-07-29T20:26:17;100944.20;;;17.70
65765;BMP180;52915;53.718;19.946;2022-07-29T20:31:22;100945.80;;;17.60
65765;BMP180;52915;53.718;19.946;2022-07-29T20:36:28;100946.00;;;17.50
65765;BMP180;52915;53.718;19.946;2022-07-29T20:41:33;100950.40;;;17.40
65765;BMP180;52915;53.718;19.946;2022-07-29T20:46:40;100952.40;;;17.20
65765;BMP180;52915;53.718;19.946;2022-07-29T20:51:45;100948.20;;;17.10
65765;BMP180;52915;53.718;19.946;2022-07-29T20:56:49;100943.00;;;17.00
65765;BMP180;52915;53.718;19.946;2022-07-29T21:01:54;100946.60;;;16.90
65765;BMP180;52915;53.718;19.946;2022-07-29T21:06:58;100945.60;;;16.80
65765;BMP180;52915;53.718;19.946;2022-07-29T21:12:03;100951.20;;;16.70
65765;BMP180;52915;53.718;19.946;2022-07-29T21:17:08;100951.40;;;16.60
65765;BMP180;52915;53.718;19.946;2022-07-29T21:22:13;100954.40;;;16.54
65765;BMP180;52915;53.718;19.946;2022-07-29T21:27:17;100951.60;;;16.70
65765;BMP180;52915;53.718;19.946;2022-07-29T21:32:40;100949.80;;;16.74
65765;BMP180;52915;53.718;19.946;2022-07-29T21:37:45;100941.00;;;16.60
65765;BMP180;52915;53.718;19.946;2022-07-29T21:42:49;100938.20;;;16.40
65765;BMP180;52915;53.718;19.946;2022-07-29T21:47:53;100933.80;;;16.28
65765;BMP180;52915;53.718;19.946;2022-07-29T21:52:58;100927.00;;;16.10
65765;BMP180;52915;53.718;19.946;2022-07-29T21:58:03;100923.20;;;15.92
65765;BMP180;52915;53.718;19.946;2022-07-29T22:03:08;100929.20;;;15.84
65765;BMP180;52915;53.718;19.946;2022-07-29T22:08:13;100928.80;;;15.80
65765;BMP180;52915;53.718;19.946;2022-07-29T22:13:17;100926.80;;;15.82
65765;BMP180;52915;53.718;19.946;2022-07-29T22:18:21;100929.20;;;15.80
65765;BMP180;52915;53.718;19.946;2022-07-29T22:23:25;100928.00;;;15.70
65765;BMP180;52915;53.718;19.946;2022-07-29T22:28:29;100926.60;;;15.60
65765;BMP180;52915;53.718;19.946;2022-07-29T22:33:33;100925.00;;;15.40
65765;BMP180;52915;53.718;19.946;2022-07-29T22:38:38;100931.60;;;15.30
65765;BMP180;52915;53.718;19.946;2022-07-29T22:43:42;100921.80;;;15.20
65765;BMP180;52915;53.718;19.946;2022-07-29T22:48:46;100909.60;;;15.30
65765;BMP180;52915;53.718;19.946;2022-07-29T22:53:51;100907.20;;;15.40
65765;BMP180;52915;53.718;19.946;2022-07-29T22:58:55;100908.00;;;15.30
65765;BMP180;52915;53.718;19.946;2022-07-29T23:03:59;100905.00;;;15.10
65765;BMP180;52915;53.718;19.946;2022-07-29T23:09:04;100899.00;;;15.00
65765;BMP180;52915;53.718;19.946;2022-07-29T23:14:09;100893.20;;;14.90
65765;BMP180;52915;53.718;19.946;2022-07-29T23:19:13;100891.40;;;14.70
65765;BMP180;52915;53.718;19.946;2022-07-29T23:24:30;100890.00;;;14.70
65765;BMP180;52915;53.718;19.946;2022-07-29T23:29:34;100893.00;;;14.90
65765;BMP180;52915;53.718;19.946;2022-07-29T23:34:39;100884.60;;;14.84
65765;BMP180;52915;53.718;19.946;2022-07-29T23:39:43;100884.20;;;14.70
65765;BMP180;52915;53.718;19.946;2022-07-29T23:44:47;100887.00;;;14.60
65765;BMP180;52915;53.718;19.946;2022-07-29T23:49:52;100883.40;;;14.50
65765;BMP180;52915;53.718;19.946;2022-07-29T23:54:58;100880.40;;;14.50
